sensor_id;sensor_type;location;lat;lon;timestamp;P1;durP1;ratioP1;P2;durP2;ratioP2
4692;SDS011;11710;48.024;16.296;2023-07-28T04:15:19;5.20;;;3.93;;
4692;SDS011;11710;48.024;16.296;2023-07-28T04:17:47;5.53;;;4.17;;
4692;SDS011;11710;48.024;16.296;2023-07-28T04:20:14;4.10;;;3.70;;
4692;SDS011;11710;48.024;16.296;2023-07-28T04:22:42;6.20;;;3.97;;
4692;SDS011;11710;48.024;16.296;2023-07-28T04:25:09;6.30;;;4.53;;
4692;SDS011;11710;48.024;16.296;2023-07-28T04:27:37;5.87;;;4.40;;
4692;SDS011;11710;48.024;16.296;2023-07-28T04:30:05;5.97;;;4.27;;
4692;SDS011;11710;48.024;16.296;2023-07-28T04:32:34;5.47;;;3.93;;
4692;SDS011;11710;48.024;16.296;2023-07-28T04:35:01;6.07;;;4.27;;
4692;SDS011;11710;48.024;16.296;2023-07-28T04:37:28;4.67;;;4.20;;
4692;SDS011;11710;48.024;16.296;2023-07-28T04:39:56;5.50;;;4.27;;
4692;SDS011;11710;48.024;16.296;2023-07-28T04:42:23;5.93;;;4.93;;
4692;SDS011;11710;48.024;16.296;2023-07-28T04:44:50;9.83;;;4.33;;
4692;SDS011;11710;48.024;16.296;2023-07-28T04:47:18;5.17;;;4.60;;
4692;SDS011;11710;48.024;16.296;2023-07-28T04:49:47;5.47;;;4.90;;
4692;SDS011;11710;48.024;16.296;2023-07-28T04:52:14;5.27;;;4.60;;
4692;SDS011;11710;48.024;16.296;2023-07-28T04:54:41;6.37;;;4.67;;
4692;SDS011;11710;48.024;16.296;2023-07-28T04:57:09;5.90;;;4.63;;
4692;SDS011;11710;48.024;16.296;2023-07-28T04:59:36;5.17;;;4.20;;
4692;SDS011;11710;48.024;16.296;2023-07-28T05:02:04;4.40;;;4.00;;
4692;SDS011;11710;48.024;16.296;2023-07-28T05:04:31;6.23;;;4.50;;
4692;SDS011;11710;48.024;16.296;2023-07-28T05:07:00;5.90;;;4.00;;
4692;SDS011;11710;48.024;16.296;2023-07-28T05:09:28;5.67;;;4.80;;
4692;SDS011;11710;48.024;16.296;2023-07-28T05:11:55;6.43;;;4.40;;
4692;SDS011;11710;48.024;16.296;2023-07-28T05:14:22;5.37;;;4.27;;
4692;SDS011;11710;48.024;16.296;2023-07-28T05:16:50;10.20;;;4.00;;
4692;SDS011;11710;48.024;16.296;2023-07-28T05:19:17;6.80;;;4.80;;
4692;SDS011;11710;48.024;16.296;2023-07-28T05:21:45;4.73;;;4.20;;
4692;SDS011;11710;48.024;16.296;2023-07-28T05:24:13;4.80;;;4.27;;
4692;SDS011;11710;48.024;16.296;2023-07-28T05:26:41;6.07;;;3.93;;
4692;SDS011;11710;48.024;16.296;2023-07-28T05:29:08;4.80;;;4.00;;
4692;SDS011;11710;48.024;16.296;2023-07-28T05:31:36;5.90;;;4.13;;
4692;SDS011;11710;48.024;16.296;2023-07-28T05:34:03;4.50;;;3.87;;
4692;SDS011;11710;48.024;16.296;2023-07-28T05:36:30;5.80;;;4.37;;
4692;SDS011;11710;48.024;16.296;2023-07-28T05:38:58;5.47;;;4.03;;
4692;SDS011;11710;48.024;16.296;2023-07-28T05:41:27;5.30;;;4.23;;
4692;SDS011;11710;48.024;16.296;2023-07-28T05:43:54;4.30;;;3.73;;
4692;SDS011;11710;48.024;16.296;2023-07-28T05:46:21;6.63;;;4.30;;
4692;SDS011;11710;48.024;16.296;2023-07-28T05:48:49;4.70;;;4.10;;
4692;SDS011;11710;48.024;16.296;2023-07-28T05:51:16;6.33;;;4.33;;
4692;SDS011;11710;48.024;16.296;2023-07-28T05:53:44;8.57;;;4.20;;
4692;SDS011;11710;48.024;16.296;2023-07-28T05:56:11;8.13;;;4.33;;
4692;SDS011;11710;48.024;16.296;2023-07-28T05:58:40;4.90;;;4.10;;
4692;SDS011;11710;48.024;16.296;2023-07-28T06:01:07;4.90;;;4.20;;
4692;SDS011;11710;48.024;16.296;2023-07-28T06:03:35;5.13;;;3.63;;
4692;SDS011;11710;48.024;16.296;2023-07-28T06:06:02;4.20;;;3.80;;
4692;SDS011;11710;48.024;16.296;2023-07-28T06:08:30;3.67;;;3.23;;
4692;SDS011;11710;48.024;16.296;2023-07-28T06:10:57;5.60;;;4.20;;
4692;SDS011;11710;48.024;16.296;2023-07-28T06:13:24;9.50;;;4.03;;
4692;SDS011;11710;48.024;16.296;2023-07-28T06:15:54;4.23;;;3.83;;
4692;SDS011;11710;48.024;16.296;2023-07-28T06:18:23;4.90;;;3.80;;
4692;SDS011;11710;48.024;16.296;2023-07-28T06:20:50;3.93;;;3.53;;
4692;SDS011;11710;48.024;16.296;2023-07-28T06:23:18;4.13;;;3.73;;
4692;SDS011;11710;48.024;16.296;2023-07-28T06:25:45;6.37;;;3.83;;
4692;SDS011;11710;48.024;16.296;2023-07-28T06:28:12;7.93;;;3.87;;
4692;SDS011;11710;48.024;16.296;2023-07-28T06:30:40;4.40;;;4.00;;
4692;SDS011;11710;48.024;16.296;2023-07-28T06:33:09;4.37;;;3.73;;
4692;SDS011;11710;48.024;16.296;2023-07-28T06:35:36;3.60;;;3.30;;
4692;SDS011;11710;48.024;16.296;2023-07-28T06:38:03;4.27;;;3.87;;
4692;SDS011;11710;48.024;16.296;2023-07-28T06:40:31;4.03;;;3.63;;
4692;SDS011;11710;48.024;16.296;2023-07-28T06:42:58;8.20;;;4.07;;
4692;SDS011;11710;48.024;16.296;2023-07-28T06:45:26;4.33;;;3.70;;
4692;SDS011;11710;48.024;16.296;2023-07-28T06:47:53;4.00;;;3.60;;
4692;SDS011;11710;48.024;16.296;2023-07-28T06:50:22;4.00;;;3.30;;
4692;SDS011;11710;48.024;16.296;2023-07-28T06:52:49;3.97;;;3.43;;
4692;SDS011;11710;48.024;16.296;2023-07-28T06:55:17;3.57;;;3.20;;
4692;SDS011;11710;48.024;16.296;2023-07-28T06:57:46;5.33;;;3.77;;
4692;SDS011;11710;48.024;16.296;2023-07-28T07:00:15;3.90;;;3.50;;
4692;SDS011;11710;48.024;16.296;2023-07-28T07:02:43;7.10;;;3.33;;
4692;SDS011;11710;48.024;16.296;2023-07-28T07:05:10;4.23;;;3.50;;
4692;SDS011;11710;48.024;16.296;2023-07-28T07:07:40;3.80;;;3.40;;
4692;SDS011;11710;48.024;16.296;2023-07-28T07:10:07;4.03;;;3.50;;
4692;SDS011;11710;48.024;16.296;2023-07-28T07:12:36;3.60;;;3.27;;
4692;SDS011;11710;48.024;16.296;2023-07-28T07:15:04;7.00;;;3.50;;
4692;SDS011;11710;48.024;16.296;2023-07-28T07:17:32;4.50;;;3.73;;
4692;SDS011;11710;48.024;16.296;2023-07-28T07:19:59;6.00;;;4.90;;
4692;SDS011;11710;48.024;16.296;2023-07-28T07:22:27;7.80;;;3.73;;
4692;SDS011;11710;48.024;16.296;2023-07-28T07:24:57;4.30;;;3.47;;
4692;SDS011;11710;48.024;16.296;2023-07-28T07:27:24;6.00;;;3.70;;
4692;SDS011;11710;48.024;16.296;2023-07-28T07:29:51;4.43;;;3.80;;
4692;SDS011;11710;48.024;16.296;2023-07-28T07:32:19;5.57;;;4.00;;
4692;SDS011;11710;48.024;16.296;2023-07-28T07:34:46;3.73;;;3.43;;
4692;SDS011;11710;48.024;16.296;2023-07-28T07:37:14;5.20;;;3.70;;
4692;SDS011;11710;48.024;16.296;2023-07-28T07:39:41;6.70;;;3.93;;
4692;SDS011;11710;48.024;16.296;2023-07-28T07:42:11;3.83;;;3.43;;
4692;SDS011;11710;48.024;16.296;2023-07-28T07:44:39;3.80;;;3.33;;
4692;SDS011;11710;48.024;16.296;2023-07-28T07:47:11;4.40;;;3.40;;
4692;SDS011;11710;48.024;16.296;2023-07-28T07:49:39;5.03;;;3.70;;
4692;SDS011;11710;48.024;16.296;2023-07-28T07:52:07;6.37;;;3.40;;
4692;SDS011;11710;48.024;16.296;2023-07-28T07:54:35;4.63;;;3.23;;
4692;SDS011;11710;48.024;16.296;2023-07-28T07:57:03;3.90;;;3.13;;
4692;SDS011;11710;48.024;16.296;2023-07-28T07:59:31;4.00;;;3.20;;
4692;SDS011;11710;48.024;16.296;2023-07-28T08:01:59;7.93;;;4.20;;
4692;SDS011;11710;48.024;16.296;2023-07-28T08:04:28;4.57;;;3.60;;
4692;SDS011;11710;48.024;16.296;2023-07-28T08:06:56;3.33;;;3.03;;
4692;SDS011;11710;48.024;16.296;2023-07-28T08:09:24;3.60;;;3.30;;
4692;SDS011;11710;48.024;16.296;2023-07-28T08:11:51;7.43;;;3.40;;
4692;SDS011;11710;48.024;16.296;2023-07-28T08:14:19;7.10;;;3.10;;
4692;SDS011;11710;48.024;16.296;2023-07-28T08:16:48;3.87;;;3.20;;
4692;SDS011;11710;48.024;16.296;2023-07-28T08:19:15;3.63;;;3.33;;
4692;SDS011;11710;48.024;16.296;2023-07-28T08:21:43;6.93;;;3.60;;
4692;SDS011;11710;48.024;16.296;2023-07-28T08:24:10;3.40;;;2.77;;
4692;SDS011;11710;48.024;16.296;2023-07-28T08:26:38;4.07;;;3.67;;
4692;SDS011;11710;48.024;16.296;2023-07-28T08:29:06;3.30;;;3.00;;
4692;SDS011;11710;48.024;16.296;2023-07-28T08:31:33;4.20;;;3.50;;
4692;SDS011;11710;48.024;16.296;2023-07-28T08:34:03;4.20;;;3.63;;
4692;SDS011;11710;48.024;16.296;2023-07-28T08:36:30;4.20;;;3.17;;
4692;SDS011;11710;48.024;16.296;2023-07-28T08:38:57;3.90;;;3.30;;
4692;SDS011;11710;48.024;16.296;2023-07-28T08:41:25;3.67;;;3.30;;
4692;SDS011;11710;48.024;16.296;2023-07-28T08:43:52;3.63;;;3.23;;
4692;SDS011;11710;48.024;16.296;2023-07-28T08:46:20;4.07;;;3.67;;
4692;SDS011;11710;48.024;16.296;2023-07-28T08:48:48;5.03;;;3.63;;
4692;SDS011;11710;48.024;16.296;2023-07-28T08:51:17;4.00;;;3.30;;
4692;SDS011;11710;48.024;16.296;2023-07-28T08:53:45;5.47;;;3.60;;
4692;SDS011;11710;48.024;16.296;2023-07-28T08:56:12;2.90;;;2.60;;
4692;SDS011;11710;48.024;16.296;2023-07-28T08:58:40;3.90;;;2.60;;
4692;SDS011;11710;48.024;16.296;2023-07-28T09:01:07;3.40;;;3.10;;
4692;SDS011;11710;48.024;16.296;2023-07-28T09:03:35;3.37;;;3.07;;
4692;SDS011;11710;48.024;16.296;2023-07-28T09:06:03;3.93;;;3.20;;
4692;SDS011;11710;48.024;16.296;2023-07-28T09:08:34;5.57;;;2.90;;
4692;SDS011;11710;48.024;16.296;2023-07-28T09:11:03;3.97;;;3.30;;
4692;SDS011;11710;48.024;16.296;2023-07-28T09:13:35;3.20;;;2.40;;
4692;SDS011;11710;48.024;16.296;2023-07-28T09:16:05;3.20;;;2.90;;
4692;SDS011;11710;48.024;16.296;2023-07-28T09:18:32;2.50;;;2.30;;
4692;SDS011;11710;48.024;16.296;2023-07-28T09:20:59;2.87;;;2.60;;
4692;SDS011;11710;48.024;16.296;2023-07-28T09:23:27;5.30;;;3.50;;
4692;SDS011;11710;48.024;16.296;2023-07-28T09:26:00;3.37;;;3.07;;
4692;SDS011;11710;48.024;16.296;2023-07-28T09:28:36;3.70;;;2.90;;
4692;SDS011;11710;48.024;16.296;2023-07-28T09:31:04;2.87;;;2.50;;
4692;SDS011;11710;48.024;16.296;2023-07-28T09:33:33;3.20;;;2.77;;
4692;SDS011;11710;48.024;16.296;2023-07-28T09:36:06;3.30;;;2.60;;
4692;SDS011;11710;48.024;16.296;2023-07-28T09:38:35;2.70;;;2.50;;
4692;SDS011;11710;48.024;16.296;2023-07-28T09:41:05;3.00;;;2.70;;
4692;SDS011;11710;48.024;16.296;2023-07-28T09:43:34;2.93;;;2.60;;
4692;SDS011;11710;48.024;16.296;2023-07-28T09:46:03;2.70;;;2.50;;
4692;SDS011;11710;48.024;16.296;2023-07-28T09:48:31;3.03;;;2.73;;
4692;SDS011;11710;48.024;16.296;2023-07-28T09:51:00;7.23;;;2.57;;
4692;SDS011;11710;48.024;16.296;2023-07-28T09:53:30;4.90;;;2.83;;
4692;SDS011;11710;48.024;16.296;2023-07-28T09:56:01;3.10;;;2.80;;
4692;SDS011;11710;48.024;16.296;2023-07-28T09:58:31;3.20;;;2.90;;
4692;SDS011;11710;48.024;16.296;2023-07-28T10:01:00;3.03;;;2.73;;
4692;SDS011;11710;48.024;16.296;2023-07-28T10:03:31;3.30;;;2.87;;
4692;SDS011;11710;48.024;16.296;2023-07-28T10:05:59;3.73;;;3.03;;
4692;SDS011;11710;48.024;16.296;2023-07-28T10:08:26;2.97;;;2.67;;
4692;SDS011;11710;48.024;16.296;2023-07-28T10:10:54;3.30;;;2.63;;
4692;SDS011;11710;48.024;16.296;2023-07-28T10:13:22;3.57;;;2.90;;
4692;SDS011;11710;48.024;16.296;2023-07-28T10:15:53;3.30;;;2.70;;
4692;SDS011;11710;48.024;16.296;2023-07-28T10:18:21;3.07;;;2.70;;
4692;SDS011;11710;48.024;16.296;2023-07-28T10:20:48;3.00;;;2.80;;
4692;SDS011;11710;48.024;16.296;2023-07-28T10:23:17;8.83;;;8.00;;
4692;SDS011;11710;48.024;16.296;2023-07-28T10:25:45;6.47;;;5.80;;
4692;SDS011;11710;48.024;16.296;2023-07-28T10:28:25;3.60;;;2.77;;
4692;SDS011;11710;48.024;16.296;2023-07-28T10:30:55;4.07;;;3.43;;
4692;SDS011;11710;48.024;16.296;2023-07-28T10:33:26;3.60;;;3.23;;
4692;SDS011;11710;48.024;16.296;2023-07-28T10:35:54;4.20;;;3.00;;
4692;SDS011;11710;48.024;16.296;2023-07-28T10:38:31;4.20;;;3.30;;
4692;SDS011;11710;48.024;16.296;2023-07-28T10:41:06;4.33;;;2.87;;
4692;SDS011;11710;48.024;16.296;2023-07-28T10:43:34;3.33;;;2.73;;
4692;SDS011;11710;48.024;16.296;2023-07-28T10:46:02;3.73;;;3.13;;
4692;SDS011;11710;48.024;16.296;2023-07-28T10:48:31;5.17;;;2.77;;
4692;SDS011;11710;48.024;16.296;2023-07-28T10:50:59;4.10;;;2.83;;
4692;SDS011;11710;48.024;16.296;2023-07-28T10:53:26;3.00;;;2.70;;
4692;SDS011;11710;48.024;16.296;2023-07-28T10:55:53;4.77;;;3.30;;
4692;SDS011;11710;48.024;16.296;2023-07-28T10:58:21;3.00;;;2.50;;
4692;SDS011;11710;48.024;16.296;2023-07-28T11:00:50;3.73;;;2.83;;
4692;SDS011;11710;48.024;16.296;2023-07-28T11:03:19;4.67;;;2.50;;
4692;SDS011;11710;48.024;16.296;2023-07-28T11:05:48;2.60;;;2.40;;
4692;SDS011;11710;48.024;16.296;2023-07-28T11:08:16;2.60;;;2.40;;
4692;SDS011;11710;48.024;16.296;2023-07-28T11:10:44;3.37;;;2.60;;
4692;SDS011;11710;48.024;16.296;2023-07-28T11:13:11;2.57;;;2.37;;
4692;SDS011;11710;48.024;16.296;2023-07-28T11:15:39;2.77;;;2.33;;
4692;SDS011;11710;48.024;16.296;2023-07-28T11:18:06;2.90;;;2.60;;
4692;SDS011;11710;48.024;16.296;2023-07-28T11:20:36;3.10;;;2.60;;
4692;SDS011;11710;48.024;16.296;2023-07-28T11:23:04;3.47;;;2.87;;
4692;SDS011;11710;48.024;16.296;2023-07-28T11:25:32;3.07;;;2.50;;
4692;SDS011;11710;48.024;16.296;2023-07-28T11:28:01;2.73;;;2.50;;
4692;SDS011;11710;48.024;16.296;2023-07-28T11:30:30;2.40;;;2.20;;
4692;SDS011;11710;48.024;16.296;2023-07-28T11:32:59;3.27;;;2.60;;
4692;SDS011;11710;48.024;16.296;2023-07-28T11:35:26;2.53;;;2.33;;
4692;SDS011;11710;48.024;16.296;2023-07-28T11:37:55;3.37;;;2.40;;
4692;SDS011;11710;48.024;16.296;2023-07-28T11:40:23;2.80;;;2.40;;
4692;SDS011;11710;48.024;16.296;2023-07-28T11:42:51;3.30;;;2.90;;
4692;SDS011;11710;48.024;16.296;2023-07-28T11:45:19;3.10;;;2.10;;
4692;SDS011;11710;48.024;16.296;2023-07-28T11:47:52;2.83;;;2.50;;
4692;SDS011;11710;48.024;16.296;2023-07-28T11:50:23;2.43;;;2.23;;
4692;SDS011;11710;48.024;16.296;2023-07-28T11:52:50;3.30;;;3.00;;
4692;SDS011;11710;48.024;16.296;2023-07-28T11:55:19;3.20;;;2.40;;
4692;SDS011;11710;48.024;16.296;2023-07-28T11:57:48;2.63;;;2.43;;
4692;SDS011;11710;48.024;16.296;2023-07-28T12:00:15;4.90;;;2.63;;
4692;SDS011;11710;48.024;16.296;2023-07-28T12:02:43;2.90;;;2.60;;
4692;SDS011;11710;48.024;16.296;2023-07-28T12:05:12;2.43;;;2.20;;
4692;SDS011;11710;48.024;16.296;2023-07-28T12:07:40;3.60;;;2.73;;
4692;SDS011;11710;48.024;16.296;2023-07-28T12:10:08;3.23;;;2.60;;
4692;SDS011;11710;48.024;16.296;2023-07-28T12:12:45;3.10;;;2.80;;
4692;SDS011;11710;48.024;16.296;2023-07-28T12:15:20;3.00;;;2.60;;
4692;SDS011;11710;48.024;16.296;2023-07-28T12:18:03;2.97;;;2.60;;
4692;SDS011;11710;48.024;16.296;2023-07-28T12:20:35;2.67;;;2.47;;
4692;SDS011;11710;48.024;16.296;2023-07-28T12:23:03;3.00;;;2.63;;
4692;SDS011;11710;48.024;16.296;2023-07-28T12:25:30;3.67;;;3.07;;
4692;SDS011;11710;48.024;16.296;2023-07-28T12:27:59;2.90;;;2.60;;
4692;SDS011;11710;48.024;16.296;2023-07-28T12:30:28;2.40;;;2.20;;
4692;SDS011;11710;48.024;16.296;2023-07-28T12:32:55;2.83;;;2.50;;
4692;SDS011;11710;48.024;16.296;2023-07-28T12:35:23;3.30;;;2.97;;
4692;SDS011;11710;48.024;16.296;2023-07-28T12:37:52;2.50;;;2.30;;
4692;SDS011;11710;48.024;16.296;2023-07-28T12:40:19;3.10;;;2.80;;
4692;SDS011;11710;48.024;16.296;2023-07-28T12:42:47;3.47;;;2.80;;
4692;SDS011;11710;48.024;16.296;2023-07-28T12:45:16;2.80;;;2.60;;
4692;SDS011;11710;48.024;16.296;2023-07-28T12:47:43;3.90;;;2.93;;
4692;SDS011;11710;48.024;16.296;2023-07-28T12:50:11;3.17;;;2.70;;
4692;SDS011;11710;48.024;16.296;2023-07-28T12:52:38;3.50;;;3.20;;
4692;SDS011;11710;48.024;16.296;2023-07-28T12:55:06;3.33;;;3.03;;
4692;SDS011;11710;48.024;16.296;2023-07-28T12:57:33;3.60;;;3.10;;
4692;SDS011;11710;48.024;16.296;2023-07-28T13:00:01;2.93;;;2.73;;
4692;SDS011;11710;48.024;16.296;2023-07-28T13:02:34;3.03;;;2.73;;
4692;SDS011;11710;48.024;16.296;2023-07-28T13:05:02;3.43;;;3.10;;
4692;SDS011;11710;48.024;16.296;2023-07-28T13:07:29;2.80;;;2.60;;
4692;SDS011;11710;48.024;16.296;2023-07-28T13:09:56;3.70;;;2.70;;
4692;SDS011;11710;48.024;16.296;2023-07-28T13:12:24;3.60;;;2.87;;
4692;SDS011;11710;48.024;16.296;2023-07-28T13:14:51;6.13;;;3.40;;
4692;SDS011;11710;48.024;16.296;2023-07-28T13:17:18;4.17;;;3.03;;
4692;SDS011;11710;48.024;16.296;2023-07-28T13:19:47;7.33;;;3.13;;
4692;SDS011;11710;48.024;16.296;2023-07-28T13:22:15;3.70;;;3.10;;
4692;SDS011;11710;48.024;16.296;2023-07-28T13:24:42;3.97;;;3.10;;
4692;SDS011;11710;48.024;16.296;2023-07-28T13:27:10;3.37;;;3.07;;
4692;SDS011;11710;48.024;16.296;2023-07-28T13:29:37;3.30;;;2.97;;
4692;SDS011;11710;48.024;16.296;2023-07-28T13:32:13;3.47;;;3.07;;
4692;SDS011;11710;48.024;16.296;2023-07-28T13:34:42;3.70;;;2.90;;
4692;SDS011;11710;48.024;16.296;2023-07-28T13:37:11;3.90;;;2.90;;
4692;SDS011;11710;48.024;16.296;2023-07-28T13:39:39;4.63;;;3.40;;
4692;SDS011;11710;48.024;16.296;2023-07-28T13:42:06;5.87;;;3.33;;
4692;SDS011;11710;48.024;16.296;2023-07-28T13:44:33;4.40;;;3.17;;
4692;SDS011;11710;48.024;16.296;2023-07-28T13:47:01;3.97;;;2.70;;
4692;SDS011;11710;48.024;16.296;2023-07-28T13:49:29;3.27;;;2.90;;
4692;SDS011;11710;48.024;16.296;2023-07-28T13:51:56;3.50;;;3.20;;
4692;SDS011;11710;48.024;16.296;2023-07-28T13:54:25;3.67;;;2.70;;
4692;SDS011;11710;48.024;16.296;2023-07-28T13:56:53;3.33;;;3.03;;
4692;SDS011;11710;48.024;16.296;2023-07-28T13:59:20;6.33;;;3.20;;
4692;SDS011;11710;48.024;16.296;2023-07-28T14:01:48;4.00;;;3.60;;
4692;SDS011;11710;48.024;16.296;2023-07-28T14:04:16;3.83;;;3.10;;
4692;SDS011;11710;48.024;16.296;2023-07-28T14:06:44;3.40;;;3.10;;
4692;SDS011;11710;48.024;16.296;2023-07-28T14:09:11;4.00;;;3.57;;
4692;SDS011;11710;48.024;16.296;2023-07-28T14:11:41;4.40;;;3.50;;
4692;SDS011;11710;48.024;16.296;2023-07-28T14:14:08;3.60;;;3.20;;
4692;SDS011;11710;48.024;16.296;2023-07-28T14:16:35;4.57;;;3.50;;
4692;SDS011;11710;48.024;16.296;2023-07-28T14:19:03;5.27;;;3.50;;
4692;SDS011;11710;48.024;16.296;2023-07-28T14:21:30;3.97;;;3.13;;
4692;SDS011;11710;48.024;16.296;2023-07-28T14:23:58;3.50;;;3.20;;
4692;SDS011;11710;48.024;16.296;2023-07-28T14:26:25;3.70;;;3.20;;
4692;SDS011;11710;48.024;16.296;2023-07-28T14:28:54;5.10;;;3.17;;
4692;SDS011;11710;48.024;16.296;2023-07-28T14:31:22;3.70;;;3.40;;
4692;SDS011;11710;48.024;16.296;2023-07-28T14:33:49;3.40;;;3.03;;
4692;SDS011;11710;48.024;16.296;2023-07-28T14:36:17;3.90;;;3.50;;
4692;SDS011;11710;48.024;16.296;2023-07-28T14:38:44;7.90;;;4.27;;
4692;SDS011;11710;48.024;16.296;2023-07-28T14:41:12;5.00;;;3.30;;
4692;SDS011;11710;48.024;16.296;2023-07-28T14:43:39;3.67;;;3.10;;
4692;SDS011;11710;48.024;16.296;2023-07-28T14:46:08;3.93;;;3.47;;
4692;SDS011;11710;48.024;16.296;2023-07-28T14:48:35;3.70;;;3.30;;
4692;SDS011;11710;48.024;16.296;2023-07-28T14:51:03;4.17;;;3.40;;
4692;SDS011;11710;48.024;16.296;2023-07-28T14:53:31;4.10;;;3.70;;
4692;SDS011;11710;48.024;16.296;2023-07-28T14:55:59;4.47;;;3.40;;
4692;SDS011;11710;48.024;16.296;2023-07-28T14:58:27;3.63;;;2.90;;
4692;SDS011;11710;48.024;16.296;2023-07-28T15:00:55;4.13;;;3.60;;
4692;SDS011;11710;48.024;16.296;2023-07-28T15:03:24;3.00;;;2.80;;
4692;SDS011;11710;48.024;16.296;2023-07-28T15:05:53;3.67;;;3.37;;
4692;SDS011;11710;48.024;16.296;2023-07-28T15:08:21;4.30;;;3.70;;
4692;SDS011;11710;48.024;16.296;2023-07-28T15:10:48;3.67;;;2.97;;
4692;SDS011;11710;48.024;16.296;2023-07-28T15:13:16;3.40;;;3.10;;
4692;SDS011;11710;48.024;16.296;2023-07-28T15:15:44;3.30;;;3.00;;
4692;SDS011;11710;48.024;16.296;2023-07-28T15:18:11;3.63;;;3.30;;
4692;SDS011;11710;48.024;16.296;2023-07-28T15:20:41;4.40;;;3.10;;
4692;SDS011;11710;48.024;16.296;2023-07-28T15:23:08;4.27;;;3.87;;
4692;SDS011;11710;48.024;16.296;2023-07-28T15:25:36;5.00;;;3.70;;
4692;SDS011;11710;48.024;16.296;2023-07-28T15:28:08;4.60;;;3.67;;
4692;SDS011;11710;48.024;16.296;2023-07-28T15:30:36;3.70;;;3.27;;
4692;SDS011;11710;48.024;16.296;2023-07-28T15:33:04;4.00;;;3.43;;
4692;SDS011;11710;48.024;16.296;2023-07-28T15:35:31;3.20;;;2.90;;
4692;SDS011;11710;48.024;16.296;2023-07-28T15:38:00;4.03;;;3.63;;
4692;SDS011;11710;48.024;16.296;2023-07-28T15:40:29;4.50;;;3.83;;
4692;SDS011;11710;48.024;16.296;2023-07-28T15:42:56;4.40;;;3.40;;
4692;SDS011;11710;48.024;16.296;2023-07-28T15:45:23;5.87;;;3.90;;
4692;SDS011;11710;48.024;16.296;2023-07-28T15:47:51;4.97;;;3.53;;
4692;SDS011;11710;48.024;16.296;2023-07-28T15:50:18;3.50;;;3.10;;
4692;SDS011;11710;48.024;16.296;2023-07-28T15:52:46;4.90;;;3.73;;
4692;SDS011;11710;48.024;16.296;2023-07-28T15:55:15;4.60;;;3.97;;
4692;SDS011;11710;48.024;16.296;2023-07-28T15:57:43;5.27;;;3.30;;
4692;SDS011;11710;48.024;16.296;2023-07-28T16:00:11;3.50;;;3.20;;
4692;SDS011;11710;48.024;16.296;2023-07-28T16:02:39;3.90;;;3.50;;
4692;SDS011;11710;48.024;16.296;2023-07-28T16:05:07;4.53;;;3.17;;
4692;SDS011;11710;48.024;16.296;2023-07-28T16:07:34;3.93;;;3.47;;
4692;SDS011;11710;48.024;16.296;2023-07-28T16:10:02;4.67;;;4.07;;
4692;SDS011;11710;48.024;16.296;2023-07-28T16:12:31;4.80;;;3.73;;
4692;SDS011;11710;48.024;16.296;2023-07-28T16:14:58;4.10;;;3.60;;
4692;SDS011;11710;48.024;16.296;2023-07-28T16:17:26;4.43;;;3.43;;
4692;SDS011;11710;48.024;16.296;2023-07-28T16:19:53;5.83;;;3.47;;
4692;SDS011;11710;48.024;16.296;2023-07-28T16:22:22;3.90;;;3.60;;
4692;SDS011;11710;48.024;16.296;2023-07-28T16:24:50;4.67;;;3.80;;
4692;SDS011;11710;48.024;16.296;2023-07-28T16:27:17;4.73;;;3.70;;
4692;SDS011;11710;48.024;16.296;2023-07-28T16:29:46;6.57;;;3.70;;
4692;SDS011;11710;48.024;16.296;2023-07-28T16:32:13;9.90;;;3.40;;
4692;SDS011;11710;48.024;16.296;2023-07-28T16:34:41;3.70;;;3.40;;
4692;SDS011;11710;48.024;16.296;2023-07-28T16:37:08;4.23;;;3.83;;
4692;SDS011;11710;48.024;16.296;2023-07-28T16:39:36;4.10;;;3.60;;
4692;SDS011;11710;48.024;16.296;2023-07-28T16:42:03;5.13;;;3.70;;
4692;SDS011;11710;48.024;16.296;2023-07-28T16:44:31;4.70;;;3.70;;
4692;SDS011;11710;48.024;16.296;2023-07-28T16:47:00;4.63;;;3.23;;
4692;SDS011;11710;48.024;16.296;2023-07-28T16:49:28;4.20;;;3.57;;
4692;SDS011;11710;48.024;16.296;2023-07-28T16:51:55;3.60;;;3.30;;
4692;SDS011;11710;48.024;16.296;2023-07-28T16:54:22;3.80;;;3.43;;
4692;SDS011;11710;48.024;16.296;2023-07-28T16:56:50;4.53;;;3.63;;
4692;SDS011;11710;48.024;16.296;2023-07-28T16:59:17;4.33;;;3.30;;
4692;SDS011;11710;48.024;16.296;2023-07-28T17:01:44;3.60;;;2.90;;
4692;SDS011;11710;48.024;16.296;2023-07-28T17:04:13;4.60;;;3.60;;
4692;SDS011;11710;48.024;16.296;2023-07-28T17:06:43;4.10;;;3.40;;
4692;SDS011;11710;48.024;16.296;2023-07-28T17:09:10;4.03;;;3.43;;
4692;SDS011;11710;48.024;16.296;2023-07-28T17:11:38;4.40;;;3.33;;
4692;SDS011;11710;48.024;16.296;2023-07-28T17:14:05;3.80;;;3.40;;
4692;SDS011;11710;48.024;16.296;2023-07-28T17:16:32;4.70;;;3.43;;
4692;SDS011;11710;48.024;16.296;2023-07-28T17:19:00;5.57;;;3.70;;
4692;SDS011;11710;48.024;16.296;2023-07-28T17:21:29;4.30;;;3.80;;
4692;SDS011;11710;48.024;16.296;2023-07-28T17:23:56;3.57;;;3.27;;
4692;SDS011;11710;48.024;16.296;2023-07-28T17:26:23;5.70;;;5.03;;
4692;SDS011;11710;48.024;16.296;2023-07-28T17:28:51;3.77;;;3.07;;
4692;SDS011;11710;48.024;16.296;2023-07-28T17:31:18;6.23;;;3.43;;
4692;SDS011;11710;48.024;16.296;2023-07-28T17:33:46;3.83;;;3.50;;
4692;SDS011;11710;48.024;16.296;2023-07-28T17:36:13;4.17;;;3.70;;
4692;SDS011;11710;48.024;16.296;2023-07-28T17:38:42;4.40;;;3.70;;
4692;SDS011;11710;48.024;16.296;2023-07-28T17:41:09;4.10;;;3.67;;
4692;SDS011;11710;48.024;16.296;2023-07-28T17:43:37;3.70;;;3.03;;
4692;SDS011;11710;48.024;16.296;2023-07-28T17:46:04;5.50;;;3.30;;
4692;SDS011;11710;48.024;16.296;2023-07-28T17:48:31;5.23;;;3.60;;
4692;SDS011;11710;48.024;16.296;2023-07-28T17:50:59;4.30;;;3.70;;
4692;SDS011;11710;48.024;16.296;2023-07-28T17:53:26;4.23;;;3.83;;
4692;SDS011;11710;48.024;16.296;2023-07-28T17:55:56;5.70;;;4.90;;
4692;SDS011;11710;48.024;16.296;2023-07-28T17:58:24;10.33;;;7.97;;
4692;SDS011;11710;48.024;16.296;2023-07-28T18:00:51;4.80;;;4.30;;
4692;SDS011;11710;48.024;16.296;2023-07-28T18:03:19;5.80;;;3.73;;
4692;SDS011;11710;48.024;16.296;2023-07-28T18:05:47;4.20;;;3.67;;
4692;SDS011;11710;48.024;16.296;2023-07-28T18:08:14;6.53;;;3.90;;
4692;SDS011;11710;48.024;16.296;2023-07-28T18:10:42;5.53;;;4.17;;
4692;SDS011;11710;48.024;16.296;2023-07-28T18:13:10;3.93;;;3.53;;
4692;SDS011;11710;48.024;16.296;2023-07-28T18:15:39;4.80;;;4.03;;
4692;SDS011;11710;48.024;16.296;2023-07-28T18:18:07;5.67;;;4.00;;
4692;SDS011;11710;48.024;16.296;2023-07-28T18:20:34;5.80;;;3.60;;
4692;SDS011;11710;48.024;16.296;2023-07-28T18:23:02;4.00;;;3.60;;
4692;SDS011;11710;48.024;16.296;2023-07-28T18:25:29;4.57;;;4.03;;
4692;SDS011;11710;48.024;16.296;2023-07-28T18:27:57;6.20;;;4.60;;
4692;SDS011;11710;48.024;16.296;2023-07-28T18:30:28;6.10;;;4.40;;
4692;SDS011;11710;48.024;16.296;2023-07-28T18:32:55;6.30;;;4.43;;
4692;SDS011;11710;48.024;16.296;2023-07-28T18:35:23;4.40;;;3.73;;
4692;SDS011;11710;48.024;16.296;2023-07-28T18:37:50;5.53;;;4.60;;
4692;SDS011;11710;48.024;16.296;2023-07-28T18:40:18;4.40;;;4.00;;
4692;SDS011;11710;48.024;16.296;2023-07-28T18:42:45;5.93;;;4.20;;
4692;SDS011;11710;48.024;16.296;2023-07-28T18:45:12;3.87;;;3.40;;
4692;SDS011;11710;48.024;16.296;2023-07-28T18:47:41;5.07;;;4.33;;
4692;SDS011;11710;48.024;16.296;2023-07-28T18:50:09;6.03;;;4.43;;
4692;SDS011;11710;48.024;16.296;2023-07-28T18:52:36;5.80;;;4.57;;
4692;SDS011;11710;48.024;16.296;2023-07-28T18:55:04;8.33;;;5.13;;
4692;SDS011;11710;48.024;16.296;2023-07-28T18:57:32;8.33;;;6.37;;
4692;SDS011;11710;48.024;16.296;2023-07-28T18:59:59;11.00;;;8.17;;
4692;SDS011;11710;48.024;16.296;2023-07-28T19:02:29;6.17;;;4.03;;
4692;SDS011;11710;48.024;16.296;2023-07-28T19:04:58;5.97;;;4.90;;
4692;SDS011;11710;48.024;16.296;2023-07-28T19:07:25;6.00;;;4.60;;